Time;durP1;ratioP1;P1;durP2;ratioP2;P2;SDS_P1;SDS_P2;PMS_P1;PMS_P2;Temp;Humidity;BMP_temperature;BMP_pressure;BME280_temperature;BME280_humidity;BME280_pressure;Samples;Min_cycle;Max_cycle;Signal;HPM_P1;HPM_P2
2020/12/14 00:01:45;;;;;;;32.95;21.12;;;;;;;-0.29;84.07;100323.41;1761995;81;21946;-70
2020/12/14 00:04:13;;;;;;;44.20;25.82;;;;;;;-0.30;84.04;100321.27;1760380;81;21124;-70
2020/12/14 00:06:52;;;;;;;38.75;23.10;;;;;;;-0.33;84.04;100320.09;1758011;81;21154;-70
2020/12/14 00:09:23;;;;;;;43.10;24.25;;;;;;;-0.34;84.04;100324.89;1761733;80;21508;-71
2020/12/14 00:11:51;;;;;;;42.75;24.30;;;;;;;-0.34;84.03;100324.89;1762113;81;21133;-70
2020/12/14 00:14:19;;;;;;;39.10;21.50;;;;;;;-0.32;84.01;100323.53;1762041;81;22128;-70
2020/12/14 00:16:47;;;;;;;39.78;24.72;;;;;;;-0.32;84.05;100322.23;1746959;80;21486;-71
2020/12/14 00:19:16;;;;;;;41.48;23.42;;;;;;;-0.32;84.04;100324.83;1746081;80;21322;-71
2020/12/14 00:21:44;;;;;;;42.53;23.77;;;;;;;-0.33;84.04;100323.98;1779241;79;21170;-70
2020/12/14 00:24:13;;;;;;;37.15;23.40;;;;;;;-0.33;84.01;100320.55;1756182;81;21082;-70
2020/12/14 00:26:41;;;;;;;37.23;23.02;;;;;;;-0.33;84.02;100320.55;1725038;82;24295;-71
2020/12/14 00:29:15;;;;;;;43.70;25.52;;;;;;;-0.33;84.05;100320.09;1726030;83;21381;-70
2020/12/14 00:31:46;;;;;;;40.20;24.92;;;;;;;-0.35;84.03;100320.60;1751567;81;21095;-70
2020/12/14 00:34:15;;;;;;;30.05;18.62;;;;;;;-0.34;84.01;100320.15;1756090;81;21065;-70
2020/12/14 00:36:45;;;;;;;33.45;20.30;;;;;;;-0.34;84.00;100326.19;1752795;81;21069;-70
2020/12/14 00:39:13;;;;;;;42.90;26.57;;;;;;;-0.34;84.00;100317.55;1756137;81;22001;-70
2020/12/14 00:41:41;;;;;;;36.85;21.73;;;;;;;-0.35;83.98;100319.76;1754583;81;21121;-71
2020/12/14 00:44:09;;;;;;;42.45;26.23;;;;;;;-0.34;83.99;100320.15;1750195;82;21092;-71
2020/12/14 00:46:38;;;;;;;41.83;24.00;;;;;;;-0.36;83.98;100323.26;1744072;81;21070;-71
2020/12/14 00:49:07;;;;;;;39.15;22.30;;;;;;;-0.38;83.99;100316.83;1737024;82;21075;-71
2020/12/14 00:51:35;;;;;;;48.63;26.48;;;;;;;-0.37;83.98;100313.33;1754191;81;21904;-71
2020/12/14 00:54:04;;;;;;;41.58;25.25;;;;;;;-0.37;84.00;100310.73;1756052;81;21168;-70
2020/12/14 00:56:32;;;;;;;34.98;21.20;;;;;;;-0.35;84.00;100315.86;1756040;81;21152;-70
2020/12/14 00:59:00;;;;;;;40.78;24.23;;;;;;;-0.34;83.97;100316.26;1755814;81;21152;-70
2020/12/14 01:01:28;;;;;;;43.42;24.92;;;;;;;-0.36;83.96;100309.83;1752975;81;21138;-70
2020/12/14 01:03:57;;;;;;;35.85;21.20;;;;;;;-0.39;83.96;100312.97;1755745;81;22101;-69
2020/12/14 01:06:25;;;;;;;45.98;26.07;;;;;;;-0.40;83.97;100306.08;1756041;81;21585;-70
2020/12/14 01:08:54;;;;;;;44.35;26.05;;;;;;;-0.42;83.97;100311.33;1738248;81;21126;-70
2020/12/14 01:11:28;;;;;;;47.25;25.90;;;;;;;-0.42;83.98;100309.19;1744497;81;21153;-69
2020/12/14 01:13:55;;;;;;;36.68;23.92;;;;;;;-0.41;84.02;100307.83;1756178;81;21180;-70
2020/12/14 01:16:23;;;;;;;38.35;23.15;;;;;;;-0.40;84.01;100304.78;1757296;81;22148;-70
2020/12/14 01:18:51;;;;;;;34.67;21.00;;;;;;;-0.38;84.01;100308.20;1761136;81;21158;-69
2020/12/14 01:21:22;;;;;;;38.67;23.92;;;;;;;-0.41;84.00;100300.50;1759355;81;21162;-71
2020/12/14 01:23:50;;;;;;;36.88;21.97;;;;;;;-0.42;84.01;100304.84;1760700;81;21164;-71
2020/12/14 01:26:19;;;;;;;38.25;22.45;;;;;;;-0.40;84.01;100299.59;1759470;81;21130;-70
2020/12/14 01:28:47;;;;;;;43.00;23.40;;;;;;;-0.39;84.02;100302.13;1761219;81;22753;-70
2020/12/14 01:31:15;;;;;;;39.83;24.50;;;;;;;-0.37;84.02;100296.46;1761146;81;21088;-70
2020/12/14 01:33:43;;;;;;;34.33;21.48;;;;;;;-0.36;84.02;100299.91;1758446;81;21143;-70
2020/12/14 01:36:11;;;;;;;45.83;25.88;;;;;;;-0.38;84.01;100294.77;1755208;81;21158;-70
2020/12/14 01:38:39;;;;;;;40.55;24.12;;;;;;;-0.40;83.99;100297.84;1755264;81;21352;-70
2020/12/14 01:41:09;;;;;;;39.40;23.22;;;;;;;-0.40;84.01;100293.95;1758461;81;22988;-70
2020/12/14 01:43:37;;;;;;;33.88;19.62;;;;;;;-0.38;84.01;100296.06;1761112;80;21069;-70
2020/12/14 01:46:06;;;;;;;41.23;24.55;;;;;;;-0.38;83.98;100297.81;1761153;81;21058;-70
2020/12/14 01:48:34;;;;;;;43.38;24.52;;;;;;;-0.38;83.99;100299.12;1761202;81;21152;-72
2020/12/14 01:51:02;;;;;;;40.33;24.00;;;;;;;-0.36;84.01;100299.91;1731453;81;21429;-70
2020/12/14 01:53:30;;;;;;;35.55;21.57;;;;;;;-0.35;84.00;100300.30;1771284;80;21902;-70
2020/12/14 01:55:59;;;;;;;40.17;23.18;;;;;;;-0.36;83.99;100295.55;1772883;80;21078;-70
2020/12/14 01:58:27;;;;;;;35.60;20.40;;;;;;;-0.35;83.98;100299.00;1763039;80;21070;-70
2020/12/14 02:00:55;;;;;;;29.10;19.35;;;;;;;-0.35;83.96;100299.00;1761080;81;21113;-70
2020/12/14 02:03:23;;;;;;;34.98;21.95;;;;;;;-0.38;83.96;100293.47;1760807;81;21121;-70
2020/12/14 02:05:51;;;;;;;38.02;20.77;;;;;;;-0.37;83.96;100296.91;1761075;81;21913;-70
2020/12/14 02:08:21;;;;;;;30.92;19.15;;;;;;;-0.36;83.92;100295.55;1773401;80;21144;-70
2020/12/14 02:10:51;;;;;;;30.00;18.00;;;;;;;-0.36;83.94;100297.30;1785907;80;21591;-69
2020/12/14 02:13:19;;;;;;;35.28;22.15;;;;;;;-0.37;83.94;100292.57;1761679;80;22471;-69
2020/12/14 02:15:48;;;;;;;31.85;19.82;;;;;;;-0.38;83.94;100286.98;1770363;80;21596;-70
2020/12/14 02:18:16;;;;;;;31.55;18.80;;;;;;;-0.38;83.96;100285.69;1755708;81;22053;-70
2020/12/14 02:20:44;;;;;;;25.95;17.42;;;;;;;-0.36;83.93;100292.12;1813367;79;21135;-69
2020/12/14 02:23:12;;;;;;;28.65;18.48;;;;;;;-0.36;83.94;100286.47;1777700;80;21125;-69
2020/12/14 02:25:41;;;;;;;25.35;17.02;;;;;;;-0.39;83.93;100284.42;1800894;79;21149;-69
2020/12/14 02:28:09;;;;;;;31.17;19.42;;;;;;;-0.39;83.92;100287.02;1800082;79;21065;-70
2020/12/14 02:30:37;;;;;;;26.93;17.02;;;;;;;-0.41;83.93;100278.45;1815663;77;24141;-70
2020/12/14 02:33:05;;;;;;;31.90;19.45;;;;;;;-0.42;83.91;100283.24;1814791;78;21460;-69
2020/12/14 02:35:33;;;;;;;25.80;17.45;;;;;;;-0.44;83.92;100277.27;1803087;77;21106;-70
2020/12/14 02:38:01;;;;;;;22.52;14.58;;;;;;;-0.47;83.92;100280.83;1814401;79;21118;-70
2020/12/14 02:40:30;;;;;;;23.25;15.58;;;;;;;-0.46;83.93;100282.97;1817676;77;21146;-69
2020/12/14 02:42:58;;;;;;;27.22;18.17;;;;;;;-0.47;83.95;100280.83;1801903;79;22078;-70
2020/12/14 02:45:26;;;;;;;31.27;17.73;;;;;;;-0.46;83.94;100282.97;1827422;77;21055;-70
2020/12/14 02:47:54;;;;;;;26.50;17.07;;;;;;;-0.48;83.94;100290.81;1796840;79;21122;-70
2020/12/14 02:50:22;;;;;;;29.63;16.30;;;;;;;-0.47;83.95;100289.91;1803346;77;21119;-70
2020/12/14 02:52:50;;;;;;;24.77;15.75;;;;;;;-0.46;83.97;100289.00;1823134;77;21174;-69
2020/12/14 02:55:19;;;;;;;23.80;15.25;;;;;;;-0.47;83.95;100286.47;1815632;78;22060;-69
2020/12/14 02:57:47;;;;;;;22.30;14.73;;;;;;;-0.48;83.94;100288.22;1815294;78;21257;-69
2020/12/14 03:00:15;;;;;;;23.18;15.50;;;;;;;-0.47;83.92;100288.61;1814345;79;21072;-69
2020/12/14 03:02:43;;;;;;;25.32;17.35;;;;;;;-0.45;83.94;100292.45;1806797;77;21137;-69
2020/12/14 03:05:12;;;;;;;24.70;16.67;;;;;;;-0.47;83.92;100291.20;1801034;77;21115;-70
2020/12/14 03:07:40;;;;;;;22.37;15.13;;;;;;;-0.46;83.92;100295.94;1805728;79;22052;-69
2020/12/14 03:10:08;;;;;;;24.72;17.15;;;;;;;-0.48;83.93;100297.30;1804788;79;21070;-69
2020/12/14 03:12:36;;;;;;;22.13;15.72;;;;;;;-0.47;83.91;100291.66;1789909;77;21497;-69
2020/12/14 03:15:04;;;;;;;19.12;12.82;;;;;;;-0.48;83.94;100294.70;1791219;77;21063;-69
2020/12/14 03:17:32;;;;;;;22.77;14.98;;;;;;;-0.45;83.97;100297.18;1783615;77;21119;-69
2020/12/14 03:20:00;;;;;;;22.22;14.53;;;;;;;-0.45;83.95;100290.70;1789349;79;24198;-69
2020/12/14 03:22:28;;;;;;;21.57;15.08;;;;;;;-0.44;83.95;100294.98;1798734;79;21075;-69
2020/12/14 03:24:56;;;;;;;21.02;14.10;;;;;;;-0.45;83.95;100295.88;1808787;79;21143;-69
2020/12/14 03:27:24;;;;;;;20.72;14.15;;;;;;;-0.43;83.95;100300.56;1791063;79;22629;-70
2020/12/14 03:29:53;;;;;;;22.20;15.58;;;;;;;-0.42;83.93;100298.81;1778788;79;21110;-70
2020/12/14 03:32:22;;;;;;;20.08;14.10;;;;;;;-0.42;83.92;100301.41;1806022;78;22139;-69
2020/12/14 03:34:50;;;;;;;20.52;14.65;;;;;;;-0.43;83.90;100307.50;1810839;79;22471;-70
2020/12/14 03:37:18;;;;;;;20.32;14.30;;;;;;;-0.44;83.92;100309.25;1812808;77;21040;-70
2020/12/14 03:39:47;;;;;;;19.70;13.58;;;;;;;-0.43;83.90;100312.23;1810871;79;21128;-70
2020/12/14 03:42:15;;;;;;;18.42;12.93;;;;;;;-0.43;83.91;100313.98;1809926;78;21059;-70
2020/12/14 03:44:43;;;;;;;21.95;14.85;;;;;;;-0.43;83.90;100317.88;1822526;77;22107;-70
2020/12/14 03:47:12;;;;;;;21.87;14.10;;;;;;;-0.44;83.90;100318.33;1838321;77;21155;-70
2020/12/14 03:49:40;;;;;;;18.98;13.38;;;;;;;-0.42;83.89;100319.56;1810441;79;21161;-70
2020/12/14 03:52:09;;;;;;;18.77;14.03;;;;;;;-0.42;83.90;100317.81;1810500;79;21153;-70
2020/12/14 03:54:37;;;;;;;20.15;14.35;;;;;;;-0.41;83.90;100321.26;1811606;77;21064;-69
2020/12/14 03:57:05;;;;;;;20.17;13.30;;;;;;;-0.41;83.89;100327.74;1812685;77;22865;-69
2020/12/14 03:59:33;;;;;;;23.32;15.40;;;;;;;-0.41;83.86;100319.96;1810886;78;21120;-69
2020/12/14 04:02:01;;;;;;;17.40;11.60;;;;;;;-0.41;83.88;100327.74;1809975;78;21169;-69
2020/12/14 04:04:29;;;;;;;20.62;13.85;;;;;;;-0.40;83.88;100320.36;1810790;79;22633;-69
2020/12/14 04:06:58;;;;;;;19.40;13.90;;;;;;;-0.41;83.86;100319.96;1768014;79;21131;-69
2020/12/14 04:09:26;;;;;;;17.45;11.73;;;;;;;-0.40;83.86;100319.91;1768853;79;21967;-70
2020/12/14 04:11:54;;;;;;;18.90;13.43;;;;;;;-0.38;83.89;100324.61;1735328;81;21141;-69
2020/12/14 04:14:22;;;;;;;19.52;13.55;;;;;;;-0.38;83.88;100328.50;1759425;81;21118;-69
2020/12/14 04:16:51;;;;;;;18.82;12.47;;;;;;;-0.39;83.86;100324.19;1735004;82;21142;-69
2020/12/14 04:19:22;;;;;;;17.95;13.08;;;;;;;-0.38;83.84;100323.31;1779515;79;21465;-69
2020/12/14 04:21:51;;;;;;;17.00;11.10;;;;;;;-0.39;83.83;100328.53;1777537;80;24350;-69
2020/12/14 04:24:19;;;;;;;19.65;13.25;;;;;;;-0.41;83.83;100332.48;1776882;80;21073;-69
2020/12/14 04:26:54;;;;;;;15.95;11.57;;;;;;;-0.43;83.80;100325.66;1771048;80;21053;-69
2020/12/14 04:29:22;;;;;;;15.83;11.35;;;;;;;-0.44;83.80;100333.89;1761513;79;21144;-69
2020/12/14 04:31:50;;;;;;;13.58;9.23;;;;;;;-0.44;83.79;100333.05;1775561;79;21191;-69
2020/12/14 04:34:19;;;;;;;17.30;12.20;;;;;;;-0.44;83.80;100333.89;1776432;80;22029;-69
2020/12/14 04:36:48;;;;;;;11.22;7.83;;;;;;;-0.45;83.80;100334.80;1770720;80;21088;-70
2020/12/14 04:39:17;;;;;;;18.32;12.80;;;;;;;-0.45;83.78;100333.95;1765072;79;21069;-69
2020/12/14 04:41:45;;;;;;;19.10;13.25;;;;;;;-0.44;83.79;100330.00;1764968;80;21244;-69
2020/12/14 04:44:13;;;;;;;18.60;13.40;;;;;;;-0.43;83.80;100329.10;1761498;80;21120;-69
2020/12/14 04:46:43;;;;;;;17.55;12.88;;;;;;;-0.42;83.81;100333.84;1750734;80;21958;-69
2020/12/14 04:49:12;;;;;;;19.85;14.15;;;;;;;-0.42;83.82;100334.69;1779549;80;21137;-70
2020/12/14 04:51:40;;;;;;;14.78;11.30;;;;;;;-0.41;83.79;100334.23;1762089;80;21074;-70
2020/12/14 04:54:08;;;;;;;19.05;13.08;;;;;;;-0.42;83.80;100339.88;1781763;80;21046;-67
2020/12/14 04:56:41;;;;;;;18.02;12.85;;;;;;;-0.44;83.77;100345.58;1778626;79;21142;-69
2020/12/14 04:59:09;;;;;;;16.12;11.95;;;;;;;-0.45;83.76;100341.74;1738426;81;21911;-73
2020/12/14 05:01:37;;;;;;;15.25;12.00;;;;;;;-0.45;83.76;100344.33;1765691;80;21453;-73
2020/12/14 05:04:06;;;;;;;18.27;13.10;;;;;;;-0.46;83.73;100342.64;1761214;81;21053;-71
2020/12/14 05:06:51;;;;;;;18.45;13.05;;;;;;;-0.47;83.75;100346.98;1761150;81;21133;-71
2020/12/14 05:09:20;;;;;;;17.32;12.15;;;;;;;-0.47;83.73;100338.36;1755059;80;21180;-71
2020/12/14 05:11:49;;;;;;;15.43;11.35;;;;;;;-0.46;83.76;100346.08;1778964;80;22060;-72
2020/12/14 05:14:23;;;;;;;17.60;12.73;;;;;;;-0.46;83.75;100341.34;1776647;80;21512;-71
2020/12/14 05:16:52;;;;;;;17.65;12.05;;;;;;;-0.46;83.75;100346.53;1740567;82;21194;-73
2020/12/14 05:19:28;;;;;;;15.85;11.90;;;;;;;-0.44;83.79;100347.33;1745245;80;21359;-73
2020/12/14 05:22:00;;;;;;;18.87;12.58;;;;;;;-0.45;83.76;100349.52;1746707;81;21050;-72
2020/12/14 05:24:30;;;;;;;21.55;13.40;;;;;;;-0.46;83.77;100355.17;1761470;81;22061;-73
2020/12/14 05:26:59;;;;;;;18.12;13.00;;;;;;;-0.44;83.77;100361.59;1761553;81;21504;-74
2020/12/14 05:29:29;;;;;;;16.10;12.53;;;;;;;-0.43;83.81;100360.23;1771555;80;21069;-72
2020/12/14 05:32:07;;;;;;;22.05;15.18;;;;;;;-0.41;83.81;100356.29;1754904;80;21475;-73
2020/12/14 05:34:41;;;;;;;21.80;14.28;;;;;;;-0.43;83.80;100361.53;1790834;80;21471;-74
2020/12/14 05:37:12;;;;;;;;;;;;;;;-0.42;83.80;100353.30;1769564;80;22945;-71
2020/12/14 05:39:41;;;;;;;18.42;13.30;;;;;;;-0.42;83.81;100357.19;1753728;80;20529;-72
2020/12/14 05:42:20;;;;;;;11.48;8.58;;;;;;;-0.43;83.82;100359.39;1787873;80;21080;-72
2020/12/14 05:44:49;;;;;;;15.68;11.85;;;;;;;-0.46;83.83;100361.66;1778996;78;21168;-72
2020/12/14 05:47:26;;;;;;;16.37;11.85;;;;;;;-0.48;83.80;100363.88;1793055;80;21482;-72
2020/12/14 05:49:55;;;;;;;17.73;12.73;;;;;;;-0.48;83.79;100367.35;1726548;81;22049;-73
2020/12/14 05:52:25;;;;;;;16.55;12.47;;;;;;;-0.50;83.81;100367.83;1753645;80;21133;-73
2020/12/14 05:57:37;;;;;;;18.45;12.90;;;;;;;-0.44;83.79;100375.86;1855414;76;29028;-73
2020/12/14 06:00:07;;;;;;;18.65;13.53;;;;;;;-0.48;83.79;100376.84;1816581;79;21172;-73
2020/12/14 06:02:36;;;;;;;16.75;11.50;;;;;;;-0.46;83.79;100377.67;1816823;77;22063;-73
2020/12/14 06:05:07;;;;;;;17.95;13.40;;;;;;;-0.43;83.79;100384.05;1786903;79;22612;-73
2020/12/14 06:07:38;;;;;;;22.02;14.28;;;;;;;-0.41;83.78;100383.53;1765434;81;21528;-73
2020/12/14 06:10:12;;;;;;;16.15;11.25;;;;;;;-0.40;83.76;100383.92;1765432;81;21113;-73
2020/12/14 06:12:46;;;;;;;14.55;10.65;;;;;;;-0.40;83.74;100382.17;1765395;81;21069;-73
2020/12/14 06:15:16;;;;;;;21.52;14.63;;;;;;;-0.40;83.75;100386.07;1832836;77;22053;-72
2020/12/14 06:17:48;;;;;;;20.68;14.43;;;;;;;-0.38;83.75;100390.78;1849778;77;21117;-72
2020/12/14 06:20:23;;;;;;;17.82;13.45;;;;;;;-0.38;83.76;100390.78;1849812;77;21130;-73
2020/12/14 06:23:03;;;;;;;22.62;15.45;;;;;;;-0.35;83.76;100393.72;1826297;77;21457;-73
2020/12/14 06:25:31;;;;;;;18.92;13.32;;;;;;;-0.34;83.74;100394.95;1814307;79;21346;-73
2020/12/14 06:28:31;;;;;;;20.85;13.83;;;;;;;-0.33;83.77;100395.80;1816768;79;21886;-73
2020/12/14 06:31:00;;;;;;;17.45;12.55;;;;;;;-0.33;83.76;100397.95;1816685;79;21069;-74
2020/12/14 06:33:40;;;;;;;15.23;10.72;;;;;;;-0.35;83.77;100398.45;1816627;77;21133;-72
2020/12/14 06:36:21;;;;;;;14.80;10.82;;;;;;;-0.33;83.79;100399.24;1796971;77;21116;-72
2020/12/14 06:38:50;;;;;;;16.30;12.50;;;;;;;-0.33;83.77;100397.95;1794057;79;21076;-72
2020/12/14 06:41:23;;;;;;;18.40;13.48;;;;;;;-0.34;83.74;100404.49;1765395;81;21839;-74
2020/12/14 06:44:09;;;;;;;13.38;9.65;;;;;;;-0.35;83.73;100406.69;1814608;77;21055;-72
2020/12/14 06:46:37;;;;;;;16.82;11.60;;;;;;;-0.36;83.75;100399.36;1816210;79;21106;-74
2020/12/14 06:49:09;;;;;;;16.32;11.70;;;;;;;-0.36;83.74;100404.55;1816323;79;21442;-73
2020/12/14 06:51:54;;;;;;;15.30;10.45;;;;;;;-0.35;83.75;100410.58;1811938;79;21131;-73
2020/12/14 06:54:43;;;;;;;14.60;10.75;;;;;;;-0.35;83.75;100407.53;1728759;82;21897;-73
2020/12/14 06:57:12;;;;;;;16.93;12.58;;;;;;;-0.34;83.75;100405.78;1717778;82;21476;-72
2020/12/14 06:59:53;;;;;;;18.90;13.70;;;;;;;-0.32;83.77;100404.83;1762811;79;21403;-73
2020/12/14 07:02:40;;;;;;;16.85;12.75;;;;;;;-0.30;83.77;100411.26;1800138;79;21466;-73
2020/12/14 07:05:32;;;;;;;17.05;12.70;;;;;;;-0.27;83.79;100416.36;1782586;79;21055;-73
2020/12/14 07:08:01;;;;;;;19.05;12.50;;;;;;;-0.25;83.80;100424.94;1799364;79;22111;-73
2020/12/14 07:10:31;;;;;;;16.55;12.33;;;;;;;-0.23;83.79;100426.19;1783271;79;21080;-73
2020/12/14 07:13:00;;;;;;;17.60;12.65;;;;;;;-0.23;83.80;100424.44;1777701;79;21588;-73
2020/12/14 07:15:32;;;;;;;15.40;11.35;;;;;;;-0.19;83.77;100423.45;1755625;80;21076;-73
2020/12/14 07:18:10;;;;;;;10.70;8.25;;;;;;;-0.18;83.74;100425.14;1806803;79;21092;-72
2020/12/14 07:21:03;;;;;;;15.28;12.28;;;;;;;-0.17;83.73;100427.28;1731461;82;21991;-72
2020/12/14 07:23:27;;;;;;;16.52;12.18;;;;;;;-0.19;83.69;100423.45;1777054;80;21545;-73
2020/12/14 07:25:55;;;;;;;17.50;12.65;;;;;;;-0.21;83.64;100422.63;1734371;82;21151;-73
2020/12/14 07:28:49;;;;;;;16.48;11.93;;;;;;;-0.20;83.60;100428.21;1783826;80;21476;-74
2020/12/14 07:31:26;;;;;;;16.60;11.75;;;;;;;-0.20;83.58;100426.91;1777438;80;21115;-75
2020/12/14 07:33:58;;;;;;;17.17;12.37;;;;;;;-0.18;83.58;100430.33;1758780;80;22432;-74
2020/12/14 07:36:28;;;;;;;17.50;13.08;;;;;;;-0.15;83.58;100440.59;1743001;82;21228;-77
2020/12/14 07:38:58;;;;;;;17.48;12.13;;;;;;;-0.10;83.58;100448.21;1776701;80;21124;-78
2020/12/14 07:41:27;;;;;;;16.85;11.75;;;;;;;-0.10;83.59;100441.27;1774622;80;21653;-76
2020/12/14 07:43:58;;;;;;;16.15;11.15;;;;;;;-0.10;83.58;100441.27;1776993;80;21128;-75
2020/12/14 07:46:35;;;;;;;16.77;12.20;;;;;;;-0.14;83.55;100439.69;1743896;82;22046;-75
2020/12/14 07:49:12;;;;;;;15.18;10.10;;;;;;;-0.15;83.54;100441.89;1748742;80;21117;-75
2020/12/14 07:51:42;;;;;;;15.18;10.68;;;;;;;-0.15;83.56;100443.64;1744554;82;21050;-74
2020/12/14 07:54:16;;;;;;;15.72;11.43;;;;;;;-0.18;83.52;100451.09;1783631;80;21068;-73
2020/12/14 07:57:16;;;;;;;13.30;10.65;;;;;;;-0.19;83.53;100446.81;1744237;80;21078;-73
2020/12/14 07:59:35;;;;;;;16.07;12.07;;;;;;;-0.17;83.56;100437.66;1811746;79;22063;-73
2020/12/14 08:02:05;;;;;;;16.55;11.90;;;;;;;-0.12;83.55;100444.83;1747072;80;21506;-73
2020/12/14 08:04:33;;;;;;;17.77;12.30;;;;;;;-0.12;83.54;100448.27;1711737;82;21060;-77
2020/12/14 08:07:02;;;;;;;16.15;11.73;;;;;;;-0.12;83.51;100448.27;1783794;80;21049;-79
2020/12/14 08:09:40;;;;;;;14.15;11.03;;;;;;;-0.09;83.49;100447.34;1767842;80;21038;-75
2020/12/14 08:12:08;;;;;;;16.00;11.20;;;;;;;-0.08;83.52;100441.24;1770223;80;22066;-71
2020/12/14 08:14:36;;;;;;;16.42;11.97;;;;;;;-0.07;83.48;100446.38;1711967;80;21583;-78
2020/12/14 08:17:06;;;;;;;18.05;12.40;;;;;;;-0.09;83.45;100444.30;1774059;80;21499;-78
2020/12/14 08:19:38;;;;;;;16.32;12.23;;;;;;;-0.08;83.46;100445.98;1742678;80;21177;-75
2020/12/14 08:22:09;;;;;;;16.45;12.07;;;;;;;-0.04;83.46;100450.16;1738468;80;21129;-75
2020/12/14 08:24:39;;;;;;;16.23;11.10;;;;;;;-0.04;83.44;100438.47;1742398;82;22198;-75
2020/12/14 08:27:10;;;;;;;16.93;12.58;;;;;;;-0.02;83.42;100443.16;1743392;82;21153;-75
2020/12/14 08:29:59;;;;;;;15.15;11.83;;;;;;;-0.02;83.40;100437.12;1752622;80;21474;-72
2020/12/14 08:32:27;;;;;;;15.28;11.68;;;;;;;0.03;83.40;100435.67;1790677;79;21142;-70
2020/12/14 08:34:56;;;;;;;16.52;12.85;;;;;;;0.05;83.40;100438.61;1794857;79;21103;-72
2020/12/14 08:37:25;;;;;;;18.50;12.80;;;;;;;0.05;83.39;100438.61;1753659;80;22066;-71
2020/12/14 08:40:00;;;;;;;15.78;11.83;;;;;;;0.07;83.41;100431.60;1774446;80;21155;-71
2020/12/14 08:42:32;;;;;;;17.07;11.73;;;;;;;0.10;83.41;100428.08;1777781;80;21569;-74
2020/12/14 08:45:12;;;;;;;14.93;11.88;;;;;;;0.12;83.40;100434.05;1780365;80;21379;-74
2020/12/14 08:47:41;;;;;;;17.27;13.08;;;;;;;0.09;83.34;100431.55;1783775;80;21055;-76
2020/12/14 08:50:12;;;;;;;12.43;9.80;;;;;;;0.10;83.35;100434.11;1783969;79;21209;-73
2020/12/14 08:52:40;;;;;;;17.25;13.03;;;;;;;0.12;83.33;100434.90;1758096;80;21139;-74
2020/12/14 08:55:08;;;;;;;15.43;11.95;;;;;;;0.15;83.33;100428.73;1775287;80;21114;-73
2020/12/14 08:57:37;;;;;;;16.60;12.88;;;;;;;0.16;83.33;100421.34;1729631;80;21123;-69
2020/12/14 09:00:12;;;;;;;18.95;13.53;;;;;;;0.15;83.26;100421.80;1815628;79;21130;-70
2020/12/14 09:02:41;;;;;;;18.05;13.03;;;;;;;0.15;83.25;100411.86;1815904;79;22109;-70
2020/12/14 09:05:20;;;;;;;14.73;11.68;;;;;;;0.16;83.24;100416.15;1815846;79;21079;-70
2020/12/14 09:07:48;;;;;;;17.40;13.08;;;;;;;0.15;83.22;100415.75;1812386;79;21127;-70
2020/12/14 09:10:19;;;;;;;12.98;10.70;;;;;;;0.14;83.21;100418.80;1743625;82;21121;-70
2020/12/14 09:12:47;;;;;;;17.90;13.10;;;;;;;0.16;83.20;100417.45;1778927;80;21120;-69
2020/12/14 09:15:17;;;;;;;16.65;12.90;;;;;;;0.13;83.13;100414.52;1749055;79;22441;-69
2020/12/14 09:17:48;;;;;;;17.40;13.43;;;;;;;0.11;83.10;100414.18;1734146;82;21143;-69
2020/12/14 09:20:20;;;;;;;18.98;13.80;;;;;;;0.09;83.10;100420.70;1781567;79;21116;-70
2020/12/14 09:22:48;;;;;;;17.50;13.05;;;;;;;0.10;83.10;100426.33;1815285;79;21131;-70
2020/12/14 09:25:15;;;;;;;17.25;13.05;;;;;;;0.12;83.12;100416.72;1787504;79;21548;-70
2020/12/14 09:27:44;;;;;;;17.07;11.65;;;;;;;0.15;83.09;100420.95;1796951;79;21938;-69
2020/12/14 09:30:12;;;;;;;19.48;13.40;;;;;;;0.14;83.05;100417.95;1732436;80;21078;-69
2020/12/14 09:32:41;;;;;;;19.70;14.15;;;;;;;0.13;83.02;100424.06;1740608;80;21073;-69
2020/12/14 09:35:09;;;;;;;19.05;13.13;;;;;;;0.09;83.00;100423.75;1715301;82;21054;-68
2020/12/14 09:37:38;;;;;;;21.68;14.40;;;;;;;0.09;82.96;100423.30;1743503;82;21145;-69
2020/12/14 09:40:06;;;;;;;19.65;13.93;;;;;;;0.11;82.98;100416.78;1744399;80;21963;-70
2020/12/14 09:42:34;;;;;;;19.02;14.58;;;;;;;0.15;82.99;100420.95;1810782;77;21182;-69
2020/12/14 09:45:05;;;;;;;18.27;13.95;;;;;;;0.16;82.97;100426.08;1814889;79;21561;-71
2020/12/14 09:47:33;;;;;;;19.52;13.55;;;;;;;0.17;82.97;100414.79;1797265;79;21477;-68
2020/12/14 09:50:03;;;;;;;20.95;14.45;;;;;;;0.18;82.98;100419.53;1816027;79;21356;-69
2020/12/14 09:52:31;;;;;;;19.52;13.90;;;;;;;0.17;82.95;100416.09;1780608;79;22051;-71
2020/12/14 09:54:59;;;;;;;22.25;16.35;;;;;;;0.19;82.97;100417.33;1811391;79;21063;-68
2020/12/14 09:57:27;;;;;;;21.82;15.65;;;;;;;0.20;82.93;100416.45;1757704;80;21148;-69
2020/12/14 09:59:56;;;;;;;21.97;15.45;;;;;;;0.22;82.90;100418.08;1749487;80;21413;-69
2020/12/14 10:02:25;;;;;;;21.42;13.68;;;;;;;0.24;82.88;100421.47;1748677;82;21024;-69
2020/12/14 10:04:55;;;;;;;20.57;13.53;;;;;;;0.25;82.86;100423.61;1726522;82;22073;-70
2020/12/14 10:07:23;;;;;;;20.60;15.13;;;;;;;0.18;82.80;100428.62;1762049;81;21236;-70
2020/12/14 10:09:51;;;;;;;20.68;15.25;;;;;;;0.14;82.80;100438.28;1737946;81;21163;-71
2020/12/14 10:12:20;;;;;;;20.30;12.65;;;;;;;0.17;82.84;100434.72;1764334;81;21509;-70
2020/12/14 10:14:48;;;;;;;19.32;14.45;;;;;;;0.19;82.84;100440.70;1744630;81;21557;-70
2020/12/14 10:17:16;;;;;;;21.77;16.10;;;;;;;0.18;82.79;100437.71;1747599;81;22082;-69
2020/12/14 10:19:47;;;;;;;23.75;16.17;;;;;;;0.17;82.73;100440.77;1761050;80;21236;-69
2020/12/14 10:22:16;;;;;;;23.07;16.30;;;;;;;0.21;82.74;100435.88;1731629;82;21580;-69
2020/12/14 10:24:44;;;;;;;17.98;12.78;;;;;;;0.22;82.72;100432.82;1737878;82;21123;-69
2020/12/14 10:27:12;;;;;;;21.20;14.55;;;;;;;0.20;82.69;100422.49;1737195;82;21049;-69
2020/12/14 10:29:40;;;;;;;18.07;12.75;;;;;;;0.18;82.69;100424.27;1730288;80;22019;-68
2020/12/14 10:32:08;;;;;;;19.70;14.35;;;;;;;0.18;82.69;100416.93;1736992;82;21155;-68
2020/12/14 10:34:37;;;;;;;21.23;15.40;;;;;;;0.18;82.68;100421.67;1761281;81;21158;-68
2020/12/14 10:37:06;;;;;;;22.87;15.65;;;;;;;0.13;82.64;100418.86;1703472;83;21494;-68
2020/12/14 10:39:37;;;;;;;21.65;15.28;;;;;;;0.11;82.62;100426.72;1728989;82;21061;-69
2020/12/14 10:42:05;;;;;;;22.32;15.05;;;;;;;0.14;82.65;100420.55;1722514;82;22964;-69
2020/12/14 10:44:33;;;;;;;21.75;15.43;;;;;;;0.15;82.65;100423.09;1692467;84;21145;-69
2020/12/14 10:47:07;;;;;;;20.20;14.23;;;;;;;0.19;82.65;100422.52;1730635;82;21062;-68
2020/12/14 10:49:35;;;;;;;21.70;14.80;;;;;;;0.20;82.62;100417.75;1733572;81;21152;-70
2020/12/14 10:52:04;;;;;;;22.85;15.23;;;;;;;0.19;82.61;100408.23;1733986;81;21469;-68
2020/12/14 10:54:32;;;;;;;22.45;15.75;;;;;;;0.19;82.60;100406.94;1733745;81;22046;-69
2020/12/14 10:57:01;;;;;;;23.07;16.32;;;;;;;0.21;82.61;100403.86;1734792;80;21090;-70
2020/12/14 10:59:29;;;;;;;26.87;18.62;;;;;;;0.18;82.58;100406.55;1741249;80;21172;-69
2020/12/14 11:01:59;;;;;;;25.52;18.45;;;;;;;0.18;82.58;100403.95;1815270;79;21151;-70
2020/12/14 11:04:30;;;;;;;23.98;16.93;;;;;;;0.18;82.58;100406.55;1815347;79;21588;-70
2020/12/14 11:06:59;;;;;;;29.82;18.45;;;;;;;0.14;82.55;100409.72;1774409;80;22071;-69
2020/12/14 11:09:28;;;;;;;25.25;17.07;;;;;;;0.13;82.55;100418.86;1761505;80;21251;-68
2020/12/14 11:11:56;;;;;;;25.45;16.90;;;;;;;0.16;82.56;100412.25;1780001;80;21145;-68
2020/12/14 11:14:24;;;;;;;23.47;13.25;;;;;;;0.20;82.56;100412.55;1726778;82;21131;-69
2020/12/14 11:16:59;;;;;;;23.87;16.23;;;;;;;0.22;82.57;100418.53;1773416;81;21064;-68
2020/12/14 11:19:29;;;;;;;22.62;15.48;;;;;;;0.21;82.55;100418.14;1721368;82;22058;-68
2020/12/14 11:21:57;;;;;;;25.50;16.10;;;;;;;0.20;82.57;100419.89;1785608;79;21117;-68
2020/12/14 11:24:25;;;;;;;25.57;16.80;;;;;;;0.14;82.51;100423.15;1782880;79;21172;-68
2020/12/14 11:26:53;;;;;;;21.90;16.55;;;;;;;0.11;82.53;100428.02;1742141;82;21056;-67
2020/12/14 11:29:20;;;;;;;23.92;16.93;;;;;;;0.13;82.53;100426.66;1787356;79;21090;-67